Time;durP1;ratioP1;P1;durP2;ratioP2;P2;SDS_P1;SDS_P2;PMS_P1;PMS_P2;Temp;Humidity;BMP_temperature;BMP_pressure;BME280_temperature;BME280_humidity;BME280_pressure;Samples;Min_cycle;Max_cycle;Signal;HPM_P1;HPM_P2
2022/05/21 00:01:08;;;;;;;15.82;4.88;;;;;;;16.82;65.60;101069.84;5055806;28;20021;-80
2022/05/21 00:03:33;;;;;;;16.02;6.60;;;;;;;16.88;65.60;101078.25;5055568;28;20033;-80
2022/05/21 00:05:59;;;;;;;12.45;5.63;;;;;;;16.92;65.70;101078.78;5055746;28;20052;-80
2022/05/21 00:08:24;;;;;;;12.85;5.13;;;;;;;16.93;65.57;101079.66;5055451;28;20154;-81
2022/05/21 00:10:50;;;;;;;8.02;3.80;;;;;;;16.93;65.41;101075.06;5055768;28;20189;-80
2022/05/21 00:13:16;;;;;;;20.30;4.25;;;;;;;16.95;65.61;101077.63;5055632;28;20025;-80
2022/05/21 00:15:41;;;;;;;13.35;5.25;;;;;;;16.92;65.71;101062.50;5055007;28;20033;-81
2022/05/21 00:18:07;;;;;;;24.00;4.65;;;;;;;16.96;65.67;101074.78;5055654;28;20052;-78
2022/05/21 00:20:48;;;;;;;16.23;5.70;;;;;;;16.95;65.69;101064.91;5055259;28;20025;-79
2022/05/21 00:23:24;;;;;;;14.13;4.78;;;;;;;16.91;65.96;101059.94;5055476;28;20025;-79
2022/05/21 00:26:14;;;;;;;10.52;4.40;;;;;;;16.88;66.20;101052.94;5055255;28;20027;-79
2022/05/21 00:28:42;;;;;;;12.82;4.75;;;;;;;16.91;66.24;101054.50;5055180;28;20067;-78
2022/05/21 00:31:09;;;;;;;14.20;3.70;;;;;;;16.95;66.32;101054.03;5054920;28;20021;-79
2022/05/21 00:33:35;;;;;;;13.80;4.35;;;;;;;16.87;66.38;101043.09;5055029;28;20039;-79
2022/05/21 00:36:02;;;;;;;20.55;5.13;;;;;;;16.88;66.61;101039.34;5055019;28;20053;-80
2022/05/21 00:38:27;;;;;;;22.77;5.05;;;;;;;16.86;66.41;101046.81;5054670;28;20017;-79
2022/05/21 00:40:54;;;;;;;24.25;4.93;;;;;;;16.83;66.78;101025.38;5055104;28;20075;-81
2022/05/21 00:43:39;;;;;;;22.85;5.95;;;;;;;16.78;67.28;101022.28;5055096;28;20024;-80
2022/05/21 00:46:07;;;;;;;16.45;4.22;;;;;;;16.73;67.51;101021.88;5055014;28;20028;-80
2022/05/21 00:48:35;;;;;;;29.42;5.05;;;;;;;16.68;67.31;101021.50;5055182;28;20417;-81
2022/05/21 00:51:01;;;;;;;19.45;4.45;;;;;;;16.62;67.53;101022.97;5056331;28;20021;-80
2022/05/21 00:53:28;;;;;;;11.55;4.65;;;;;;;16.59;67.87;101025.16;5076141;28;20036;-80
2022/05/21 00:55:56;;;;;;;27.88;5.35;;;;;;;16.52;67.83;101015.84;5057233;28;20171;-81
2022/05/21 01:01:13;;;;;;;25.70;4.30;;;;;;;16.59;67.71;101007.00;5054957;28;20043;-81
2022/05/21 01:03:38;;;;;;;20.95;5.18;;;;;;;16.57;67.71;101003.59;5054514;28;20107;-81
2022/05/21 01:06:05;;;;;;;43.72;6.80;;;;;;;16.56;68.05;101011.88;5054750;28;20155;-80
2022/05/21 01:08:30;;;;;;;28.48;5.07;;;;;;;16.54;68.23;101011.16;5054354;28;20073;-81
2022/05/21 01:11:02;;;;;;;26.17;5.00;;;;;;;16.47;68.00;100997.31;5054310;28;20512;-81
2022/05/21 01:13:32;;;;;;;20.42;4.07;;;;;;;16.43;68.30;100995.06;5054445;28;20021;-81
2022/05/21 01:15:58;;;;;;;21.40;5.90;;;;;;;16.42;68.31;100996.09;5054275;28;20029;-80
2022/05/21 01:18:24;;;;;;;13.77;5.07;;;;;;;16.37;68.27;100991.09;5054131;28;20086;-80
2022/05/21 01:20:55;;;;;;;23.15;5.22;;;;;;;16.36;68.43;100988.56;5054158;28;20033;-80
2022/05/21 01:23:22;;;;;;;17.30;4.65;;;;;;;16.33;68.46;100997.84;5054226;28;20063;-80
2022/05/21 01:25:49;;;;;;;25.45;4.78;;;;;;;16.23;68.70;100988.91;5054097;28;20029;-80
2022/05/21 01:28:19;;;;;;;14.25;4.10;;;;;;;16.17;68.61;100979.53;5054133;28;20086;-80
2022/05/21 01:30:51;;;;;;;13.15;3.90;;;;;;;16.22;68.67;100982.63;5053909;28;20029;-80
2022/05/21 01:33:20;;;;;;;24.40;5.00;;;;;;;16.18;68.62;100981.22;5054129;28;20060;-80
2022/05/21 01:35:48;;;;;;;21.00;4.38;;;;;;;16.12;68.40;100965.53;5053771;28;20098;-79
2022/05/21 01:38:19;;;;;;;23.10;4.18;;;;;;;16.22;68.53;100969.06;5053892;28;20025;-81
2022/05/21 01:40:45;;;;;;;23.65;7.05;;;;;;;16.23;68.83;100970.78;5053766;28;20466;-80
2022/05/21 01:45:55;;;;;;;11.95;3.80;;;;;;;16.23;68.65;100961.78;5054063;28;20044;-79
2022/05/21 01:48:24;;;;;;;18.65;3.92;;;;;;;16.27;68.40;100974.00;5054028;28;20037;-79
2022/05/21 01:50:52;;;;;;;20.30;4.55;;;;;;;16.31;68.39;100975.44;5052590;28;20033;-80
2022/05/21 01:53:18;;;;;;;16.35;3.92;;;;;;;16.26;68.66;100966.91;5053693;28;20059;-81
2022/05/21 01:55:45;;;;;;;14.20;3.60;;;;;;;16.15;68.92;100965.25;5053245;28;20467;-81
2022/05/21 01:58:11;;;;;;;11.35;3.10;;;;;;;16.28;68.72;100959.44;5053784;28;20029;-79
2022/05/21 02:00:36;;;;;;;17.67;5.40;;;;;;;16.32;68.61;100956.28;5053279;28;20395;-79
2022/05/21 02:03:03;;;;;;;10.75;5.50;;;;;;;16.41;68.54;100953.66;5053748;28;20024;-80
2022/05/21 02:05:29;;;;;;;15.15;4.18;;;;;;;16.47;68.33;100953.03;5053311;28;20025;-80
2022/05/21 02:07:54;;;;;;;9.65;3.63;;;;;;;16.49;68.44;100964.56;5052912;28;20028;-81
2022/05/21 02:10:22;;;;;;;9.43;3.72;;;;;;;16.55;68.50;100966.69;5053405;28;20020;-81
2022/05/21 02:12:48;;;;;;;16.58;4.22;;;;;;;16.47;68.21;100963.88;5053634;28;20375;-81
2022/05/21 02:15:14;;;;;;;10.15;4.40;;;;;;;16.46;68.10;100957.59;5053573;28;20416;-78
2022/05/21 02:17:39;;;;;;;12.75;5.10;;;;;;;16.50;68.30;100958.16;5053755;28;20035;-81
2022/05/21 02:20:05;;;;;;;25.17;5.90;;;;;;;16.56;68.39;100953.00;5053921;28;20029;-81
2022/05/21 02:22:31;;;;;;;21.88;5.32;;;;;;;16.62;68.70;100951.50;5053077;28;20460;-80
2022/05/21 02:24:56;;;;;;;18.52;5.50;;;;;;;16.69;68.62;100953.47;5053734;28;20032;-80
2022/05/21 02:27:21;;;;;;;37.55;6.15;;;;;;;16.75;68.73;100957.41;5056416;28;20021;-80
2022/05/21 02:29:47;;;;;;;14.23;4.63;;;;;;;16.70;68.71;100943.41;5070963;28;20017;-81
2022/05/21 02:32:14;;;;;;;28.55;5.70;;;;;;;16.78;68.84;100949.81;5057341;28;20049;-81
2022/05/21 02:34:41;;;;;;;16.30;5.30;;;;;;;16.81;68.65;100952.22;5053733;28;20029;-81
2022/05/21 02:39:51;;;;;;;18.05;5.90;;;;;;;16.81;68.57;100952.22;5053405;28;20064;-81
2022/05/21 02:45:00;;;;;;;15.70;6.30;;;;;;;16.77;69.26;100944.50;5053383;28;20506;-82
2022/05/21 02:47:26;;;;;;;17.13;6.53;;;;;;;16.76;68.90;100948.22;5053602;28;20025;-81
2022/05/21 02:49:53;;;;;;;23.08;6.47;;;;;;;16.76;68.71;100950.94;5053052;28;20486;-81
2022/05/21 02:52:18;;;;;;;18.33;5.68;;;;;;;16.66;69.02;100936.63;5053568;28;20032;-80
2022/05/21 02:54:44;;;;;;;14.10;6.28;;;;;;;16.68;69.23;100940.03;5055120;28;20025;-79
2022/05/21 02:57:10;;;;;;;15.35;4.90;;;;;;;16.61;69.32;100941.66;5053956;28;20158;-78
2022/05/21 02:59:39;;;;;;;20.58;5.45;;;;;;;16.65;69.13;100943.03;5053094;28;20025;-79
2022/05/21 03:02:05;;;;;;;20.70;4.75;;;;;;;16.58;69.18;100939.25;5054495;28;20024;-79
2022/05/21 03:04:31;;;;;;;14.15;4.40;;;;;;;16.61;69.26;100944.34;5057102;28;20036;-79
2022/05/21 03:06:57;;;;;;;17.67;5.25;;;;;;;16.63;69.08;100942.38;5057169;28;20025;-79
2022/05/21 03:12:08;;;;;;;12.13;4.45;;;;;;;16.65;69.23;100946.63;5057104;28;20059;-81
2022/05/21 03:14:34;;;;;;;14.00;5.45;;;;;;;16.56;69.42;100941.28;5057130;28;20055;-81
2022/05/21 03:17:00;;;;;;;11.55;5.10;;;;;;;16.56;69.64;100938.56;5057130;28;20029;-81
2022/05/21 03:19:30;;;;;;;35.42;8.85;;;;;;;16.53;69.71;100933.41;5056389;28;20060;-77
2022/05/21 03:21:57;;;;;;;29.15;8.00;;;;;;;16.58;69.97;100944.66;5056403;28;20478;-79
2022/05/21 03:24:22;;;;;;;39.80;7.85;;;;;;;16.57;69.83;100948.41;5056575;28;20029;-79
2022/05/21 03:26:48;;;;;;;30.00;8.65;;;;;;;16.54;70.28;100951.41;5056473;28;20032;-79
2022/05/21 03:29:13;;;;;;;36.22;8.48;;;;;;;16.46;70.55;100945.88;5055908;28;20390;-77
2022/05/21 03:31:39;;;;;;;30.00;9.00;;;;;;;16.34;71.58;100958.84;5055886;28;20379;-79
2022/05/21 03:34:05;;;;;;;28.35;9.68;;;;;;;16.34;71.33;100953.41;5055995;28;20134;-79
2022/05/21 03:36:31;;;;;;;23.88;10.20;;;;;;;16.29;71.71;100937.59;5056117;28;20080;-81
2022/05/21 03:38:57;;;;;;;28.40;10.88;;;;;;;16.38;71.72;100932.25;5056773;28;20527;-81
2022/05/21 03:41:23;;;;;;;41.25;8.98;;;;;;;16.39;71.70;100929.34;5056804;28;20025;-81
2022/05/21 03:43:48;;;;;;;43.45;10.13;;;;;;;16.42;71.93;100929.03;5056759;28;20031;-81
2022/05/21 03:46:14;;;;;;;41.38;10.20;;;;;;;16.43;71.58;100932.63;5056707;28;20473;-81
2022/05/21 03:48:39;;;;;;;18.75;8.95;;;;;;;16.53;71.32;100936.13;5056798;28;20029;-79
2022/05/21 03:51:05;;;;;;;31.73;11.90;;;;;;;16.56;71.02;100936.69;5056544;28;20017;-80
2022/05/21 03:53:31;;;;;;;45.00;12.88;;;;;;;16.57;70.90;100924.84;5057128;28;20032;-80
2022/05/21 03:55:57;;;;;;;31.73;13.73;;;;;;;16.58;70.57;100931.09;5056409;28;20055;-80
2022/05/21 03:58:23;;;;;;;29.20;9.45;;;;;;;16.61;70.50;100928.06;5056346;28;20028;-79
2022/05/21 04:00:50;;;;;;;38.10;9.07;;;;;;;16.70;70.61;100933.41;5057142;28;20020;-83
2022/05/21 04:03:16;;;;;;;33.20;9.23;;;;;;;16.71;70.75;100945.13;5058110;28;20025;-84
2022/05/21 04:05:42;;;;;;;42.83;8.98;;;;;;;16.69;71.17;100942.59;5071369;28;20067;-81
2022/05/21 04:08:08;;;;;;;44.47;9.98;;;;;;;16.77;71.35;100949.94;5063398;28;20561;-84
2022/05/21 04:10:34;;;;;;;62.20;11.60;;;;;;;16.77;71.58;100944.50;5057157;28;20017;-81
2022/05/21 04:12:59;;;;;;;27.80;9.43;;;;;;;16.72;71.68;100944.13;5054965;28;20095;-79
2022/05/21 04:15:26;;;;;;;43.42;10.93;;;;;;;16.77;71.67;100939.06;5056076;28;20479;-80
2022/05/21 04:17:55;;;;;;;37.80;10.23;;;;;;;16.79;72.05;100931.63;5057096;28;20089;-84
2022/05/21 04:20:25;;;;;;;48.25;11.18;;;;;;;16.80;71.68;100927.91;5056956;28;20108;-83
2022/05/21 04:22:51;;;;;;;27.27;9.75;;;;;;;16.91;71.67;100933.06;5056053;28;20063;-82
2022/05/21 04:25:17;;;;;;;38.83;9.35;;;;;;;17.04;71.07;100938.09;5038281;28;20021;-83
2022/05/21 04:27:43;;;;;;;36.33;8.73;;;;;;;17.14;70.41;100934.28;5056362;28;20387;-82
2022/05/21 04:30:16;;;;;;;30.33;10.85;;;;;;;17.23;69.75;100946.91;5055567;28;20021;-79
2022/05/21 04:32:45;;;;;;;34.78;10.63;;;;;;;17.27;69.58;100940.16;5055445;28;20025;-79
2022/05/21 04:35:12;;;;;;;24.70;9.57;;;;;;;17.28;69.42;100944.56;5055330;28;20025;-79
2022/05/21 04:37:38;;;;;;;37.40;10.93;;;;;;;17.41;69.42;100944.97;5055436;28;20069;-79
2022/05/21 04:40:06;;;;;;;48.67;11.02;;;;;;;17.48;69.16;100944.34;5056226;28;20051;-79
2022/05/21 04:42:32;;;;;;;69.25;13.52;;;;;;;17.49;69.53;100940.63;5060199;28;20393;-79
2022/05/21 04:44:57;;;;;;;38.45;11.77;;;;;;;17.60;69.41;100937.63;5066964;28;20021;-79
2022/05/21 04:47:22;;;;;;;35.53;9.73;;;;;;;17.60;69.23;100933.06;5059750;28;20056;-77
2022/05/21 04:49:48;;;;;;;39.95;11.40;;;;;;;17.70;69.15;100922.03;5056090;28;20021;-79
2022/05/21 04:52:13;;;;;;;27.38;9.48;;;;;;;17.73;68.74;100917.13;5054841;28;20013;-77
2022/05/21 04:54:39;;;;;;;30.67;9.68;;;;;;;17.73;68.05;100905.41;5054805;28;20099;-78
2022/05/21 04:57:05;;;;;;;29.77;9.55;;;;;;;17.88;67.63;100925.53;5055511;28;20115;-79
2022/05/21 04:59:31;;;;;;;33.70;8.05;;;;;;;17.95;67.51;100919.22;5054664;28;20478;-77
2022/05/21 05:01:56;;;;;;;28.98;9.27;;;;;;;18.00;66.20;100918.75;5054374;28;20025;-77
2022/05/21 05:04:22;;;;;;;28.30;7.85;;;;;;;18.17;65.12;100930.53;5054047;28;20028;-78
2022/05/21 05:06:47;;;;;;;22.60;7.38;;;;;;;18.24;65.06;100910.66;5053890;28;20025;-78
2022/05/21 05:09:13;;;;;;;35.70;12.60;;;;;;;18.40;63.79;100920.72;5053477;28;20375;-75
2022/05/21 05:11:38;;;;;;;29.75;7.63;;;;;;;18.50;63.53;100913.25;5054246;28;20021;-78
2022/05/21 05:14:04;;;;;;;26.90;5.20;;;;;;;18.64;61.52;100922.63;5053889;28;20117;-78
2022/05/21 05:16:29;;;;;;;39.67;7.22;;;;;;;18.65;60.71;100902.56;5053155;28;20418;-78
2022/05/21 05:18:54;;;;;;;11.40;3.70;;;;;;;18.79;59.52;100910.03;5052867;28;20059;-77
2022/05/21 05:21:20;;;;;;;10.57;3.17;;;;;;;18.90;57.41;100904.22;5053221;28;20028;-76
2022/05/21 05:23:45;;;;;;;13.48;3.90;;;;;;;19.04;56.79;100911.72;5052695;28;20044;-76
2022/05/21 05:26:11;;;;;;;14.30;3.97;;;;;;;19.05;57.13;100899.78;5052402;28;20025;-76
2022/05/21 05:28:36;;;;;;;9.32;3.90;;;;;;;19.12;56.53;100908.97;5053398;28;20031;-78
2022/05/21 05:31:01;;;;;;;10.30;2.92;;;;;;;19.28;55.72;100919.84;5053255;28;20470;-79
2022/05/21 05:33:29;;;;;;;42.60;4.70;;;;;;;19.38;54.22;100915.06;5053784;28;20021;-78
2022/05/21 05:35:55;;;;;;;14.30;4.03;;;;;;;19.45;54.15;100924.28;5053209;28;20152;-77
2022/05/21 05:38:22;;;;;;;7.07;2.85;;;;;;;19.46;53.62;100920.53;5053297;28;20111;-77
2022/05/21 05:40:50;;;;;;;11.60;2.53;;;;;;;19.64;53.10;100927.63;5053338;28;20445;-77
2022/05/21 05:43:17;;;;;;;11.10;2.63;;;;;;;19.73;52.02;100926.56;5053784;28;20035;-78
2022/05/21 05:45:42;;;;;;;5.38;2.42;;;;;;;19.75;51.56;100908.16;5060627;28;20017;-79
2022/05/21 05:48:08;;;;;;;6.78;2.28;;;;;;;19.84;51.24;100912.53;5069818;28;20036;-80
2022/05/21 05:50:34;;;;;;;9.07;2.83;;;;;;;19.82;51.58;100918.16;5053702;28;20072;-81
2022/05/21 05:53:05;;;;;;;12.20;2.85;;;;;;;19.85;51.37;100914.22;5053362;28;20032;-81
2022/05/21 05:55:32;;;;;;;14.35;2.63;;;;;;;19.86;51.50;100910.47;5053550;28;20178;-82
2022/05/21 05:57:57;;;;;;;8.00;2.58;;;;;;;19.95;51.55;100912.13;5053696;28;20025;-79
2022/05/21 06:00:23;;;;;;;18.55;3.53;;;;;;;20.07;51.08;100911.56;5052852;28;20410;-76
2022/05/21 06:02:58;;;;;;;12.98;4.00;;;;;;;20.17;51.13;100899.56;5052899;28;20025;-78
2022/05/21 06:05:30;;;;;;;15.15;4.80;;;;;;;20.15;51.19;100893.44;5053544;28;20025;-78
2022/05/21 06:07:58;;;;;;;14.80;5.57;;;;;;;20.28;51.14;100908.22;5052901;28;20434;-76
2022/05/21 06:10:35;;;;;;;10.75;4.03;;;;;;;20.37;51.54;100904.41;5052405;28;20086;-76
2022/05/21 06:13:02;;;;;;;6.60;3.13;;;;;;;20.43;51.80;100900.09;5053089;28;20032;-77
2022/05/21 06:15:27;;;;;;;19.25;3.78;;;;;;;20.57;52.02;100908.38;5053384;28;20020;-77
2022/05/21 06:17:54;;;;;;;30.27;5.85;;;;;;;20.66;51.57;100897.34;5052877;28;20025;-78
2022/05/21 06:20:22;;;;;;;16.30;5.10;;;;;;;20.73;51.43;100904.66;5052088;28;20455;-78
2022/05/21 06:22:49;;;;;;;11.60;5.80;;;;;;;20.85;51.56;100900.44;5052170;28;20474;-77
2022/05/21 06:25:17;;;;;;;20.60;5.00;;;;;;;20.93;51.21;100904.97;5052309;28;20064;-75
2022/05/21 06:27:47;;;;;;;15.65;4.68;;;;;;;20.94;50.73;100891.13;5052503;28;20057;-76
2022/05/21 06:30:14;;;;;;;12.10;4.45;;;;;;;21.00;50.90;100884.06;5052665;28;20445;-78
2022/05/21 06:32:40;;;;;;;9.52;3.55;;;;;;;21.12;50.97;100882.59;5053303;28;20490;-79
2022/05/21 06:35:08;;;;;;;27.38;11.73;;;;;;;21.27;51.38;100897.16;5052282;28;20030;-80
2022/05/21 06:37:34;;;;;;;22.02;14.43;;;;;;;21.29;53.13;100880.53;5052259;28;20054;-79
2022/05/21 06:40:00;;;;;;;35.20;13.80;;;;;;;21.40;53.52;100886.41;5052410;28;20094;-79
2022/05/21 06:42:25;;;;;;;29.60;14.75;;;;;;;21.51;53.58;100891.41;5055999;28;20421;-79
2022/05/21 06:44:51;;;;;;;48.72;16.85;;;;;;;21.56;54.08;100888.06;5052549;28;20024;-79
2022/05/21 06:47:16;;;;;;;34.38;15.70;;;;;;;21.65;54.14;100890.53;5050771;28;20406;-79
2022/05/21 06:49:42;;;;;;;32.33;15.60;;;;;;;21.69;53.17;100875.44;5054693;28;20024;-79
2022/05/21 06:52:08;;;;;;;38.50;16.20;;;;;;;21.85;53.32;100870.78;5052429;28;20021;-79
2022/05/21 06:54:34;;;;;;;43.13;17.83;;;;;;;21.90;53.40;100871.06;5052754;28;20504;-78
2022/05/21 06:56:59;;;;;;;60.53;20.60;;;;;;;21.96;53.53;100873.03;5052687;28;20040;-79
2022/05/21 06:59:25;;;;;;;27.85;14.93;;;;;;;22.00;53.60;100866.13;5052376;28;20037;-79
2022/05/21 07:01:51;;;;;;;32.80;15.65;;;;;;;22.09;52.96;100876.78;5054731;28;20029;-79
2022/05/21 07:07:32;;;;;;;32.47;17.35;;;;;;;22.12;52.71;100859.13;5059127;28;20021;-79
2022/05/21 07:09:47;;;;;;;19.25;9.13;;;;;;;22.23;51.33;100853.13;5052205;28;20088;-78
2022/05/21 07:12:12;;;;;;;31.10;10.93;;;;;;;22.27;51.22;100840.72;5052170;28;20025;-78
2022/05/21 07:14:38;;;;;;;29.27;9.82;;;;;;;22.42;51.19;100855.22;5051917;28;20020;-80
2022/05/21 07:17:03;;;;;;;37.08;12.63;;;;;;;22.50;51.14;100846.88;5052195;28;20063;-79
2022/05/21 07:19:29;;;;;;;28.27;8.43;;;;;;;22.57;50.47;100845.03;5051867;28;20032;-78
2022/05/21 07:21:54;;;;;;;16.33;9.13;;;;;;;22.65;50.23;100844.94;5051791;28;20788;-79
2022/05/21 07:24:20;;;;;;;21.63;10.10;;;;;;;22.68;50.23;100839.06;5052699;28;20033;-80
2022/05/21 07:26:46;;;;;;;15.15;7.32;;;;;;;22.77;50.03;100842.50;5068452;28;20035;-79
2022/05/21 07:29:12;;;;;;;22.65;8.70;;;;;;;22.87;49.13;100832.03;5052555;28;20395;-79
2022/05/21 07:31:38;;;;;;;27.83;9.15;;;;;;;22.90;49.06;100837.13;5052551;28;20036;-79
2022/05/21 07:34:03;;;;;;;21.83;10.27;;;;;;;23.00;49.45;100836.75;5051710;28;20047;-79
2022/05/21 07:36:28;;;;;;;21.75;9.75;;;;;;;23.07;49.31;100830.25;5051182;28;20044;-79
2022/05/21 07:38:54;;;;;;;22.67;10.23;;;;;;;23.19;49.47;100830.53;5051419;28;20037;-79
2022/05/21 07:41:19;;;;;;;23.77;8.05;;;;;;;23.25;49.03;100833.34;5050673;28;20029;-80
2022/05/21 07:43:45;;;;;;;22.17;8.10;;;;;;;23.28;47.96;100826.59;5052479;28;20087;-79
2022/05/21 07:46:12;;;;;;;19.55;7.68;;;;;;;23.41;48.83;100817.59;5052542;28;20115;-78
2022/05/21 07:48:37;;;;;;;17.17;6.80;;;;;;;23.46;48.32;100837.91;5052440;28;20021;-79
2022/05/21 07:51:03;;;;;;;17.23;5.45;;;;;;;23.53;48.72;100821.47;5055787;28;20036;-77
2022/05/21 07:53:35;;;;;;;25.38;5.40;;;;;;;23.45;48.13;100828.00;5055793;28;20028;-80
2022/05/21 07:56:02;;;;;;;20.48;4.75;;;;;;;23.29;48.34;100817.31;5055627;28;20123;-78
2022/05/21 07:58:30;;;;;;;19.92;5.05;;;;;;;23.32;47.94;100819.66;5055554;28;20025;-79
2022/05/21 08:00:56;;;;;;;15.98;4.03;;;;;;;23.40;47.98;100811.28;5055358;28;20028;-79
2022/05/21 08:03:22;;;;;;;12.73;4.65;;;;;;;23.39;47.55;100798.63;5056205;28;20021;-79
2022/05/21 08:05:48;;;;;;;8.52;3.92;;;;;;;23.42;47.86;100795.47;5055335;28;20082;-79
2022/05/21 08:08:14;;;;;;;8.77;4.43;;;;;;;23.38;47.83;100796.88;5055279;28;20437;-78
2022/05/21 08:10:42;;;;;;;15.10;4.22;;;;;;;23.40;48.35;100799.44;5055253;28;20017;-78
2022/05/21 08:13:07;;;;;;;14.52;3.92;;;;;;;23.47;47.72;100803.06;5055100;28;20387;-77
2022/05/21 08:15:34;;;;;;;13.50;4.90;;;;;;;23.19;47.16;100803.09;5055014;28;20043;-79
2022/05/21 08:18:00;;;;;;;12.38;3.47;;;;;;;23.14;47.99;100800.13;5055097;28;20438;-77
2022/05/21 08:20:26;;;;;;;12.68;4.28;;;;;;;23.24;47.27;100800.59;5055065;28;20036;-78
2022/05/21 08:28:20;;;;;;;17.38;4.00;;;;;;;23.45;47.45;100797.78;5055192;28;20107;-78
2022/05/21 08:30:47;;;;;;;6.22;2.95;;;;;;;23.41;47.33;100791.00;5054778;28;20017;-79
2022/05/21 08:33:15;;;;;;;7.53;3.10;;;;;;;23.50;47.51;100789.78;5055074;28;20382;-78
2022/05/21 08:35:41;;;;;;;13.45;3.15;;;;;;;23.55;47.65;100787.25;5054595;28;20136;-78
2022/05/21 08:38:08;;;;;;;5.07;2.72;;;;;;;23.48;47.88;100783.66;5055336;28;20560;-78
2022/05/21 08:41:03;;;;;;;13.23;3.53;;;;;;;23.58;48.17;100781.34;5055415;28;20124;-78
2022/05/21 08:43:53;;;;;;;12.93;4.57;;;;;;;23.56;47.85;100791.72;5055433;28;20032;-78
2022/05/21 08:46:24;;;;;;;17.33;3.47;;;;;;;23.59;48.03;100785.81;5054790;28;20017;-78
2022/05/21 08:48:56;;;;;;;11.88;3.08;;;;;;;23.75;47.76;100784.59;5054603;28;20048;-80
2022/05/21 08:51:27;;;;;;;11.50;4.03;;;;;;;23.85;47.69;100774.88;5054409;28;20033;-78
2022/05/21 08:53:53;;;;;;;14.77;3.38;;;;;;;23.92;48.30;100771.31;5053852;28;20033;-78
2022/05/21 08:56:20;;;;;;;13.35;3.83;;;;;;;23.98;48.32;100779.56;5054014;28;20021;-78
2022/05/21 08:58:52;;;;;;;11.15;3.13;;;;;;;24.06;47.51;100778.53;5053555;28;20033;-79
2022/05/21 09:01:21;;;;;;;16.13;4.85;;;;;;;24.08;48.65;100773.69;5053987;28;20039;-78
2022/05/21 09:03:50;;;;;;;25.13;3.45;;;;;;;24.17;47.90;100775.19;5054029;28;20025;-78
2022/05/21 09:06:18;;;;;;;8.90;2.92;;;;;;;24.28;47.11;100766.31;5054521;28;20036;-80
2022/05/21 09:09:02;;;;;;;16.50;3.13;;;;;;;24.21;47.11;100754.50;5054730;28;20032;-80
2022/05/21 09:11:35;;;;;;;13.82;2.75;;;;;;;24.31;47.91;100760.44;5054223;28;20033;-80
2022/05/21 09:14:10;;;;;;;14.02;3.15;;;;;;;24.34;47.35;100760.00;5053718;28;20036;-79
2022/05/21 09:19:26;;;;;;;3.75;2.58;;;;;;;24.43;47.64;100750.50;5053944;28;20036;-78
2022/05/21 09:22:13;;;;;;;8.90;2.63;;;;;;;24.44;47.68;100754.91;5053945;28;20471;-78
2022/05/21 09:24:45;;;;;;;11.05;3.20;;;;;;;24.44;47.20;100751.31;5053732;28;20052;-79
2022/05/21 09:27:31;;;;;;;42.88;4.65;;;;;;;24.60;47.91;100754.47;5053929;28;20029;-79
2022/05/21 09:30:31;;;;;;;15.30;3.80;;;;;;;24.67;48.02;100747.09;5053687;28;20104;-80
2022/05/21 09:33:19;;;;;;;15.80;3.63;;;;;;;24.75;47.94;100740.50;5040901;28;20033;-80
2022/05/21 09:35:53;;;;;;;8.50;3.88;;;;;;;24.80;47.56;100748.94;5053461;28;20074;-79
2022/05/21 09:38:25;;;;;;;9.60;2.60;;;;;;;24.87;47.11;100739.66;5054530;28;20080;-80
2022/05/21 09:41:16;;;;;;;9.67;2.70;;;;;;;25.05;47.33;100730.72;5053523;28;20475;-78
2022/05/21 09:46:42;;;;;;;11.10;2.80;;;;;;;25.11;46.23;100720.75;5053829;28;20040;-79
2022/05/21 09:49:18;;;;;;;7.93;2.50;;;;;;;24.92;45.51;100723.34;5053260;28;20025;-78
2022/05/21 09:52:02;;;;;;;7.50;2.85;;;;;;;25.10;45.85;100724.56;5053454;28;20031;-78
2022/05/21 09:54:34;;;;;;;6.22;2.28;;;;;;;25.19;44.53;100726.03;5053554;28;20045;-78
2022/05/21 09:56:59;;;;;;;7.25;2.22;;;;;;;25.07;44.14;100716.75;5053483;28;20565;-78
2022/05/21 09:59:30;;;;;;;6.80;2.53;;;;;;;25.27;44.95;100717.50;5053308;28;20064;-79
2022/05/21 10:02:13;;;;;;;20.20;2.53;;;;;;;25.36;43.34;100700.53;5053432;28;20032;-79
2022/05/21 10:04:48;;;;;;;12.13;2.47;;;;;;;25.40;43.50;100707.28;5052636;28;20089;-78
2022/05/21 10:13:07;;;;;;;23.42;3.55;;;;;;;25.76;42.89;100698.41;5052009;28;20035;-77
2022/05/21 10:15:40;;;;;;;9.98;2.25;;;;;;;25.68;41.51;100682.16;5052288;28;20033;-78
2022/05/21 10:18:21;;;;;;;8.25;2.25;;;;;;;25.86;41.25;100698.78;5053051;28;20364;-78
2022/05/21 10:20:54;;;;;;;8.15;2.00;;;;;;;25.96;41.06;100693.59;5053098;28;20045;-78
2022/05/21 10:24:01;;;;;;;10.10;2.25;;;;;;;25.98;39.88;100683.22;5052994;28;20029;-79
2022/05/21 10:26:32;;;;;;;7.30;2.38;;;;;;;26.16;39.82;100695.41;5040659;28;20103;-78
2022/05/21 10:29:53;;;;;;;11.73;2.60;;;;;;;25.97;38.84;100684.28;5052449;28;20072;-78
2022/05/21 10:32:49;;;;;;;12.65;2.67;;;;;;;26.07;38.91;100685.69;5036701;28;20059;-79
2022/05/21 10:36:00;;;;;;;9.60;2.80;;;;;;;26.20;38.90;100685.63;5053109;28;20029;-78
2022/05/21 10:38:43;;;;;;;5.28;2.00;;;;;;;26.25;38.27;100683.00;5050862;28;20049;-78
2022/05/21 10:41:39;;;;;;;10.05;2.67;;;;;;;26.36;38.26;100682.28;5052966;28;20037;-77
2022/05/21 10:44:25;;;;;;;5.90;2.22;;;;;;;26.40;38.02;100678.84;5053264;28;20033;-78
2022/05/21 10:47:03;;;;;;;4.15;2.28;;;;;;;26.55;37.81;100677.63;5051442;28;20402;-78
2022/05/21 10:49:48;;;;;;;5.00;2.60;;;;;;;26.65;37.85;100667.78;5053167;28;20132;-78
2022/05/21 10:52:22;;;;;;;8.60;2.65;;;;;;;26.74;38.31;100652.59;5052920;28;20024;-79
2022/05/21 10:54:57;;;;;;;9.02;2.15;;;;;;;26.88;38.06;100662.44;5052774;28;20107;-78
2022/05/21 10:57:32;;;;;;;9.20;2.00;;;;;;;27.04;38.76;100658.22;5052744;28;20025;-78
2022/05/21 11:00:21;;;;;;;5.80;2.58;;;;;;;27.09;37.80;100663.06;5052944;28;20051;-78
2022/05/21 11:03:05;;;;;;;9.57;2.03;;;;;;;27.24;38.18;100669.00;5052889;28;20036;-78
2022/05/21 11:05:55;;;;;;;18.30;3.38;;;;;;;27.04;38.43;100656.28;5052727;28;20037;-79
2022/05/21 11:08:54;;;;;;;4.35;2.63;;;;;;;27.10;39.20;100656.44;5052698;28;20021;-78
2022/05/21 11:11:37;;;;;;;7.63;2.85;;;;;;;27.28;39.20;100656.41;5052513;28;20726;-79
2022/05/21 11:14:17;;;;;;;11.63;3.28;;;;;;;27.29;38.36;100663.63;5052270;28;20096;-78
2022/05/21 11:16:47;;;;;;;6.05;2.25;;;;;;;27.27;39.57;100654.75;5051935;28;20032;-77
2022/05/21 11:19:21;;;;;;;8.40;2.33;;;;;;;27.26;38.98;100648.38;5052483;28;20025;-79
2022/05/21 11:21:46;;;;;;;15.05;3.40;;;;;;;27.25;39.20;100651.34;5052734;28;20032;-78
2022/05/21 11:24:35;;;;;;;6.57;2.97;;;;;;;27.39;39.67;100648.19;5054910;28;20090;-78
2022/05/21 11:27:10;;;;;;;14.27;2.45;;;;;;;27.25;40.45;100641.16;5056689;28;20029;-78
2022/05/21 11:29:58;;;;;;;9.10;2.67;;;;;;;27.32;39.81;100641.06;5055422;28;20442;-78
2022/05/21 11:38:21;;;;;;;11.23;2.97;;;;;;;27.44;40.71;100628.16;5055879;28;20069;-78
2022/05/21 11:41:24;;;;;;;20.63;4.03;;;;;;;27.28;41.12;100629.63;5055674;28;20037;-78
2022/05/21 11:46:50;;;;;;;7.28;2.90;;;;;;;27.31;42.32;100625.56;5056049;28;20032;-78
2022/05/21 11:49:30;;;;;;;7.50;2.95;;;;;;;27.25;43.21;100624.56;5055140;28;20021;-78
2022/05/21 11:51:59;;;;;;;16.40;3.60;;;;;;;27.32;43.32;100610.69;5055831;28;20025;-78
2022/05/21 11:54:47;;;;;;;11.07;3.13;;;;;;;27.35;43.04;100615.72;5055604;28;20029;-78
2022/05/21 11:57:35;;;;;;;8.25;3.30;;;;;;;27.22;43.12;100607.63;5055561;28;20561;-79
2022/05/21 12:00:09;;;;;;;18.08;3.40;;;;;;;27.24;43.73;100595.28;5055226;28;20032;-78
2022/05/21 12:02:38;;;;;;;11.38;2.80;;;;;;;27.30;44.32;100599.03;5055721;28;20430;-78
2022/05/21 12:05:08;;;;;;;16.83;3.70;;;;;;;27.24;44.55;100597.22;5055394;28;20017;-79
2022/05/21 12:07:48;;;;;;;8.45;2.63;;;;;;;27.14;44.52;100600.53;5055547;28;20021;-78
2022/05/21 12:10:16;;;;;;;13.45;2.95;;;;;;;27.10;44.35;100592.94;5055669;28;20016;-78
2022/05/21 12:13:18;;;;;;;7.78;3.08;;;;;;;27.28;44.45;100584.59;5055718;28;20500;-78